Impacts METAR Board
IDs:

KBAZ - New Braunfels Muni, TX, US

Updated at: 1200 UTC 16 Jul 2019
Potential Impact None Slight Moderate High
Time 16/00Z 16/01Z 16/02Z 16/03Z 16/04Z 16/05Z 16/06Z 16/07Z 16/08Z 16/09Z 16/10Z 16/11Z 16/12Z
Temp94 92 88 86 84 81 80 79 77 78 79 78 78
Dewpt71 70 73 74 74 74 74 74 74 75 75 75 75
Altim29.85 29.86 29.88 29.89 29.93 29.94 29.94 29.95 29.95 29.96 29.96 29.98 29.99
VIS10 10 10 10 10 10 10 10 10 10 10 10 9
CIG-- -- -- -- -- -- -- -- -- 13 16 22 --
CoverCLRCLRCLRCLRCLRCLRCLRCLRCLROVCOVCBKNCLR
FltCatVFRVFRVFRVFRVFRVFRVFRVFRVFRMVFRMVFRMVFRVFR
WX--------------------------
WDir170180150170170170180180170170190200200
WSpd11 6 8 11 12 8 8 5 3 6 9 7 5
WGst-- -- -- -- -- -- -- -- -- -- -- -- --
Raw hourly METARs
KBAZ 152351Z AUTO 17011KT 10SM CLR 34/22 A2985 RMK AO2 SLP099 T03440217 10361 20339 58012
KBAZ 160051Z AUTO 18006KT 10SM CLR 33/21 A2986 RMK AO2 SLP103 T03330211
KBAZ 160151Z AUTO 15008KT 10SM CLR 31/23 A2988 RMK AO2 SLP107 T03110228
KBAZ 160251Z AUTO 17011KT 10SM CLR 30/23 A2989 RMK AO2 SLP113 T03000233 53014
KBAZ 160351Z AUTO 17012KT 10SM CLR 29/23 A2993 RMK AO2 SLP124 T02890233
KBAZ 160451Z AUTO 17008KT 10SM CLR 27/23 A2994 RMK AO2 SLP127 T02720233
KBAZ 160551Z AUTO 18008KT 10SM CLR 27/23 A2994 RMK AO2 SLP129 T02670233 10344 20267 403610244 51017
KBAZ 160651Z AUTO 18005KT 10SM CLR 26/23 A2995 RMK AO2 SLP131 T02610233
KBAZ 160751Z AUTO 17003KT 10SM CLR 25/23 A2995 RMK AO2 SLP132 T02500233
KBAZ 160851Z AUTO 17006KT 10SM BKN013 OVC018 26/24 A2996 RMK AO2 SLP134 T02560239 53005
KBAZ 160951Z AUTO 19009KT 10SM OVC016 26/24 A2996 RMK AO2 SLP136 T02610239
KBAZ 161051Z AUTO 20007KT 10SM BKN022 26/24 A2998 RMK AO2 SLP140 T02560239
KBAZ 161151Z 20005KT 9SM CLR 26/24 A2999 RMK AO2 SLP144 T02560239 10267 20250 53009